sensor_id;sensor_type;location;lat;lon;timestamp;temperature;humidity
33943;DHT22;66763;47.856;17.462;2023-04-01T00:01:58;20.50;47.60
33943;DHT22;66763;47.856;17.462;2023-04-01T00:04:24;20.40;47.60
33943;DHT22;66763;47.856;17.462;2023-04-01T00:06:49;20.40;47.60
33943;DHT22;66763;47.856;17.462;2023-04-01T00:09:15;20.50;47.60
33943;DHT22;66763;47.856;17.462;2023-04-01T00:11:40;20.50;47.50
33943;DHT22;66763;47.856;17.462;2023-04-01T00:14:06;20.50;47.60
33943;DHT22;66763;47.856;17.462;2023-04-01T00:16:32;20.40;47.60
33943;DHT22;66763;47.856;17.462;2023-04-01T00:18:58;20.40;47.60
33943;DHT22;66763;47.856;17.462;2023-04-01T00:21:23;20.40;47.50
33943;DHT22;66763;47.856;17.462;2023-04-01T00:23:51;20.40;47.60
33943;DHT22;66763;47.856;17.462;2023-04-01T00:26:17;20.40;47.60
33943;DHT22;66763;47.856;17.462;2023-04-01T00:28:45;20.40;47.60
33943;DHT22;66763;47.856;17.462;2023-04-01T00:31:11;20.40;47.60
33943;DHT22;66763;47.856;17.462;2023-04-01T00:33:37;20.40;47.60
33943;DHT22;66763;47.856;17.462;2023-04-01T00:36:21;20.40;47.60
33943;DHT22;66763;47.856;17.462;2023-04-01T00:38:47;20.40;47.60
33943;DHT22;66763;47.856;17.462;2023-04-01T00:41:14;20.40;47.60
33943;DHT22;66763;47.856;17.462;2023-04-01T00:43:41;20.40;47.60
33943;DHT22;66763;47.856;17.462;2023-04-01T00:46:07;20.40;47.50
33943;DHT22;66763;47.856;17.462;2023-04-01T00:48:33;20.30;47.60
33943;DHT22;66763;47.856;17.462;2023-04-01T00:51:03;20.40;47.60
33943;DHT22;66763;47.856;17.462;2023-04-01T00:53:29;20.40;47.60
33943;DHT22;66763;47.856;17.462;2023-04-01T00:56:05;20.40;47.60
33943;DHT22;66763;47.856;17.462;2023-04-01T00:58:33;20.30;47.50
33943;DHT22;66763;47.856;17.462;2023-04-01T01:01:00;20.30;47.60
33943;DHT22;66763;47.856;17.462;2023-04-01T01:03:26;20.30;47.60
33943;DHT22;66763;47.856;17.462;2023-04-01T01:11:10;20.30;47.70
33943;DHT22;66763;47.856;17.462;2023-04-01T01:13:41;20.30;47.60
33943;DHT22;66763;47.856;17.462;2023-04-01T01:16:17;20.30;47.70
33943;DHT22;66763;47.856;17.462;2023-04-01T01:37:02;20.20;47.50
33943;DHT22;66763;47.856;17.462;2023-04-01T01:39:30;20.20;47.60
33943;DHT22;66763;47.856;17.462;2023-04-01T01:41:57;20.20;47.50
33943;DHT22;66763;47.856;17.462;2023-04-01T01:44:23;20.20;47.50
33943;DHT22;66763;47.856;17.462;2023-04-01T01:46:51;20.20;47.50
33943;DHT22;66763;47.856;17.462;2023-04-01T01:49:17;20.20;47.50
33943;DHT22;66763;47.856;17.462;2023-04-01T01:51:44;20.20;47.50
33943;DHT22;66763;47.856;17.462;2023-04-01T01:54:17;20.20;47.40
33943;DHT22;66763;47.856;17.462;2023-04-01T01:56:44;20.20;47.50
33943;DHT22;66763;47.856;17.462;2023-04-01T01:59:11;20.20;47.50
33943;DHT22;66763;47.856;17.462;2023-04-01T02:01:39;20.20;47.50
33943;DHT22;66763;47.856;17.462;2023-04-01T02:04:06;20.20;47.50
33943;DHT22;66763;47.856;17.462;2023-04-01T02:06:34;20.20;47.50
33943;DHT22;66763;47.856;17.462;2023-04-01T02:09:03;20.20;47.50
33943;DHT22;66763;47.856;17.462;2023-04-01T02:11:33;20.20;47.50
33943;DHT22;66763;47.856;17.462;2023-04-01T02:14:04;20.10;47.40
33943;DHT22;66763;47.856;17.462;2023-04-01T02:16:36;20.10;47.50
33943;DHT22;66763;47.856;17.462;2023-04-01T02:19:03;20.10;47.40
33943;DHT22;66763;47.856;17.462;2023-04-01T02:21:32;20.10;47.40
33943;DHT22;66763;47.856;17.462;2023-04-01T02:23:58;20.10;47.50
33943;DHT22;66763;47.856;17.462;2023-04-01T02:26:25;20.10;47.40
33943;DHT22;66763;47.856;17.462;2023-04-01T02:28:52;20.10;47.40
33943;DHT22;66763;47.856;17.462;2023-04-01T02:31:18;20.10;47.40
33943;DHT22;66763;47.856;17.462;2023-04-01T02:33:44;20.10;47.40
33943;DHT22;66763;47.856;17.462;2023-04-01T02:36:12;20.10;47.40
33943;DHT22;66763;47.856;17.462;2023-04-01T02:38:38;20.10;47.40
33943;DHT22;66763;47.856;17.462;2023-04-01T02:41:04;20.10;47.40
33943;DHT22;66763;47.856;17.462;2023-04-01T02:43:31;20.10;47.40
33943;DHT22;66763;47.856;17.462;2023-04-01T02:45:57;20.10;47.40
33943;DHT22;66763;47.856;17.462;2023-04-01T02:48:22;20.10;47.40
33943;DHT22;66763;47.856;17.462;2023-04-01T02:50:48;20.10;47.50
33943;DHT22;66763;47.856;17.462;2023-04-01T02:53:13;20.10;47.50
33943;DHT22;66763;47.856;17.462;2023-04-01T02:55:39;20.10;47.40
33943;DHT22;66763;47.856;17.462;2023-04-01T02:58:04;20.10;47.30
33943;DHT22;66763;47.856;17.462;2023-04-01T03:00:30;20.10;47.40
33943;DHT22;66763;47.856;17.462;2023-04-01T03:02:56;20.10;47.40
33943;DHT22;66763;47.856;17.462;2023-04-01T03:05:22;20.10;47.40
33943;DHT22;66763;47.856;17.462;2023-04-01T03:07:47;20.00;47.50
33943;DHT22;66763;47.856;17.462;2023-04-01T03:10:13;20.00;47.50
33943;DHT22;66763;47.856;17.462;2023-04-01T03:12:38;20.00;47.50
33943;DHT22;66763;47.856;17.462;2023-04-01T03:15:04;20.10;47.30
33943;DHT22;66763;47.856;17.462;2023-04-01T03:17:30;20.10;47.10
33943;DHT22;66763;47.856;17.462;2023-04-01T03:19:55;20.30;47.10
33943;DHT22;66763;47.856;17.462;2023-04-01T03:22:20;20.40;47.10
33943;DHT22;66763;47.856;17.462;2023-04-01T03:24:46;20.50;47.00
33943;DHT22;66763;47.856;17.462;2023-04-01T03:27:12;20.60;47.00
33943;DHT22;66763;47.856;17.462;2023-04-01T03:29:38;20.70;46.90
33943;DHT22;66763;47.856;17.462;2023-04-01T03:32:03;20.80;46.80
33943;DHT22;66763;47.856;17.462;2023-04-01T03:34:29;20.80;46.80
33943;DHT22;66763;47.856;17.462;2023-04-01T03:36:55;20.90;46.70
33943;DHT22;66763;47.856;17.462;2023-04-01T03:39:20;21.00;46.70
33943;DHT22;66763;47.856;17.462;2023-04-01T03:41:46;21.00;46.70
33943;DHT22;66763;47.856;17.462;2023-04-01T03:44:11;21.10;46.60
33943;DHT22;66763;47.856;17.462;2023-04-01T03:46:37;21.10;46.60
33943;DHT22;66763;47.856;17.462;2023-04-01T03:49:05;21.20;46.60
33943;DHT22;66763;47.856;17.462;2023-04-01T03:51:37;21.20;46.50
33943;DHT22;66763;47.856;17.462;2023-04-01T03:54:02;21.30;46.50
33943;DHT22;66763;47.856;17.462;2023-04-01T03:56:28;21.30;46.50
33943;DHT22;66763;47.856;17.462;2023-04-01T03:58:53;21.40;46.50
33943;DHT22;66763;47.856;17.462;2023-04-01T04:01:19;21.40;46.40
33943;DHT22;66763;47.856;17.462;2023-04-01T04:03:46;21.40;46.40
33943;DHT22;66763;47.856;17.462;2023-04-01T04:06:12;21.40;46.40
33943;DHT22;66763;47.856;17.462;2023-04-01T04:08:38;21.40;46.30
33943;DHT22;66763;47.856;17.462;2023-04-01T04:11:03;21.50;46.30
33943;DHT22;66763;47.856;17.462;2023-04-01T04:13:29;21.40;46.30
33943;DHT22;66763;47.856;17.462;2023-04-01T04:15:54;21.50;46.30
33943;DHT22;66763;47.856;17.462;2023-04-01T04:18:20;21.50;46.40
33943;DHT22;66763;47.856;17.462;2023-04-01T04:20:46;21.50;46.30
33943;DHT22;66763;47.856;17.462;2023-04-01T04:23:16;21.40;46.30
33943;DHT22;66763;47.856;17.462;2023-04-01T04:25:52;21.40;46.30
33943;DHT22;66763;47.856;17.462;2023-04-01T04:28:18;21.40;46.40
33943;DHT22;66763;47.856;17.462;2023-04-01T04:30:43;21.40;46.40
33943;DHT22;66763;47.856;17.462;2023-04-01T04:33:09;21.40;46.40
33943;DHT22;66763;47.856;17.462;2023-04-01T04:35:35;21.40;46.40
33943;DHT22;66763;47.856;17.462;2023-04-01T04:38:00;21.30;46.30
33943;DHT22;66763;47.856;17.462;2023-04-01T04:40:26;21.40;46.40
33943;DHT22;66763;47.856;17.462;2023-04-01T04:42:51;21.30;46.40
33943;DHT22;66763;47.856;17.462;2023-04-01T04:45:17;21.30;46.40
33943;DHT22;66763;47.856;17.462;2023-04-01T04:47:42;21.30;46.50
33943;DHT22;66763;47.856;17.462;2023-04-01T04:50:08;21.20;46.50
33943;DHT22;66763;47.856;17.462;2023-04-01T04:52:33;21.20;46.50
33943;DHT22;66763;47.856;17.462;2023-04-01T04:54:58;21.20;46.50
33943;DHT22;66763;47.856;17.462;2023-04-01T04:57:24;21.20;46.60
33943;DHT22;66763;47.856;17.462;2023-04-01T04:59:50;21.20;46.70
33943;DHT22;66763;47.856;17.462;2023-04-01T05:02:15;21.20;46.70
33943;DHT22;66763;47.856;17.462;2023-04-01T05:04:41;21.10;46.60
33943;DHT22;66763;47.856;17.462;2023-04-01T05:07:06;21.10;46.80
33943;DHT22;66763;47.856;17.462;2023-04-01T05:09:32;21.10;46.80
33943;DHT22;66763;47.856;17.462;2023-04-01T05:11:58;21.10;46.80
33943;DHT22;66763;47.856;17.462;2023-04-01T05:14:23;21.00;46.70
33943;DHT22;66763;47.856;17.462;2023-04-01T05:16:49;21.00;46.70
33943;DHT22;66763;47.856;17.462;2023-04-01T05:19:15;21.00;46.70
33943;DHT22;66763;47.856;17.462;2023-04-01T05:21:41;21.00;46.70
33943;DHT22;66763;47.856;17.462;2023-04-01T05:24:09;21.00;46.70
33943;DHT22;66763;47.856;17.462;2023-04-01T05:26:35;20.90;46.70
33943;DHT22;66763;47.856;17.462;2023-04-01T05:29:02;20.90;46.70
33943;DHT22;66763;47.856;17.462;2023-04-01T05:31:27;20.90;46.70
33943;DHT22;66763;47.856;17.462;2023-04-01T05:33:53;20.90;46.90
33943;DHT22;66763;47.856;17.462;2023-04-01T05:36:19;20.90;46.80
33943;DHT22;66763;47.856;17.462;2023-04-01T05:38:44;20.80;46.80
33943;DHT22;66763;47.856;17.462;2023-04-01T05:41:13;20.80;46.80
33943;DHT22;66763;47.856;17.462;2023-04-01T05:43:39;20.80;46.80
33943;DHT22;66763;47.856;17.462;2023-04-01T05:46:05;20.80;46.90
33943;DHT22;66763;47.856;17.462;2023-04-01T05:48:30;20.80;46.90
33943;DHT22;66763;47.856;17.462;2023-04-01T05:50:56;20.80;46.90
33943;DHT22;66763;47.856;17.462;2023-04-01T05:53:21;20.80;46.90
33943;DHT22;66763;47.856;17.462;2023-04-01T05:55:47;20.70;46.90
33943;DHT22;66763;47.856;17.462;2023-04-01T05:58:13;20.70;46.90
33943;DHT22;66763;47.856;17.462;2023-04-01T06:00:38;20.70;46.90
33943;DHT22;66763;47.856;17.462;2023-04-01T06:03:04;20.70;47.00
33943;DHT22;66763;47.856;17.462;2023-04-01T06:05:38;20.60;47.00
33943;DHT22;66763;47.856;17.462;2023-04-01T06:08:13;20.60;47.00
33943;DHT22;66763;47.856;17.462;2023-04-01T06:16:07;20.60;47.10
33943;DHT22;66763;47.856;17.462;2023-04-01T06:41:43;20.40;47.30
33943;DHT22;66763;47.856;17.462;2023-04-01T06:46:47;20.40;47.20
33943;DHT22;66763;47.856;17.462;2023-04-01T06:54:36;20.40;47.40
33943;DHT22;66763;47.856;17.462;2023-04-01T06:59:47;20.30;47.40
33943;DHT22;66763;47.856;17.462;2023-04-01T07:02:47;20.30;47.50
33943;DHT22;66763;47.856;17.462;2023-04-01T07:05:04;20.30;47.50
33943;DHT22;66763;47.856;17.462;2023-04-01T07:09:59;20.30;47.50
33943;DHT22;66763;47.856;17.462;2023-04-01T07:14:55;20.20;47.50
33943;DHT22;66763;47.856;17.462;2023-04-01T07:17:22;20.20;47.50
33943;DHT22;66763;47.856;17.462;2023-04-01T07:19:52;20.20;47.50
33943;DHT22;66763;47.856;17.462;2023-04-01T07:22:26;20.30;47.60
33943;DHT22;66763;47.856;17.462;2023-04-01T07:24:54;20.30;47.50
33943;DHT22;66763;47.856;17.462;2023-04-01T07:27:19;20.30;47.40
33943;DHT22;66763;47.856;17.462;2023-04-01T07:29:45;20.30;47.40
33943;DHT22;66763;47.856;17.462;2023-04-01T07:37:12;20.30;47.20
33943;DHT22;66763;47.856;17.462;2023-04-01T07:42:29;20.30;47.00
33943;DHT22;66763;47.856;17.462;2023-04-01T07:47:55;20.40;47.10
33943;DHT22;66763;47.856;17.462;2023-04-01T07:50:34;20.40;47.20
33943;DHT22;66763;47.856;17.462;2023-04-01T07:55:42;20.30;47.20
33943;DHT22;66763;47.856;17.462;2023-04-01T08:00:40;20.40;47.20
33943;DHT22;66763;47.856;17.462;2023-04-01T08:03:24;20.30;47.60
33943;DHT22;66763;47.856;17.462;2023-04-01T08:06:10;20.30;47.50
33943;DHT22;66763;47.856;17.462;2023-04-01T08:13:40;20.30;47.40
33943;DHT22;66763;47.856;17.462;2023-04-01T08:16:12;20.30;47.40
33943;DHT22;66763;47.856;17.462;2023-04-01T08:21:11;20.30;47.40
33943;DHT22;66763;47.856;17.462;2023-04-01T08:23:40;20.30;47.10
33943;DHT22;66763;47.856;17.462;2023-04-01T08:26:16;20.20;47.20
33943;DHT22;66763;47.856;17.462;2023-04-01T08:28:51;20.20;47.30
33943;DHT22;66763;47.856;17.462;2023-04-01T08:31:19;20.20;47.30
33943;DHT22;66763;47.856;17.462;2023-04-01T08:33:48;20.30;47.20
33943;DHT22;66763;47.856;17.462;2023-04-01T08:38:53;20.30;47.30
33943;DHT22;66763;47.856;17.462;2023-04-01T08:43:57;20.30;47.20
33943;DHT22;66763;47.856;17.462;2023-04-01T09:02:03;20.30;47.60
33943;DHT22;66763;47.856;17.462;2023-04-01T09:04:38;20.30;47.70
33943;DHT22;66763;47.856;17.462;2023-04-01T09:17:46;20.30;47.80
33943;DHT22;66763;47.856;17.462;2023-04-01T09:35:49;20.20;46.70
33943;DHT22;66763;47.856;17.462;2023-04-01T10:30:46;20.60;45.20
33943;DHT22;66763;47.856;17.462;2023-04-01T10:45:45;21.00;45.00
33943;DHT22;66763;47.856;17.462;2023-04-01T11:21:46;21.40;45.40
33943;DHT22;66763;47.856;17.462;2023-04-01T11:26:39;21.40;45.80
33943;DHT22;66763;47.856;17.462;2023-04-01T11:34:15;21.30;46.20
33943;DHT22;66763;47.856;17.462;2023-04-01T11:42:14;21.40;46.50
33943;DHT22;66763;47.856;17.462;2023-04-01T11:47:42;21.30;46.70
33943;DHT22;66763;47.856;17.462;2023-04-01T11:53:00;21.20;46.80
33943;DHT22;66763;47.856;17.462;2023-04-01T11:56:07;21.30;46.90
33943;DHT22;66763;47.856;17.462;2023-04-01T12:11:20;21.10;47.00
33943;DHT22;66763;47.856;17.462;2023-04-01T12:16:35;21.10;47.10
33943;DHT22;66763;47.856;17.462;2023-04-01T12:22:03;21.10;47.20
33943;DHT22;66763;47.856;17.462;2023-04-01T12:24:34;21.10;47.20
33943;DHT22;66763;47.856;17.462;2023-04-01T12:34:49;21.10;47.60
33943;DHT22;66763;47.856;17.462;2023-04-01T12:39:47;21.10;47.40
33943;DHT22;66763;47.856;17.462;2023-04-01T12:45:02;21.30;47.30
33943;DHT22;66763;47.856;17.462;2023-04-01T12:47:40;21.40;47.20
33943;DHT22;66763;47.856;17.462;2023-04-01T12:50:18;21.50;47.10
33943;DHT22;66763;47.856;17.462;2023-04-01T12:55:36;21.60;46.90
33943;DHT22;66763;47.856;17.462;2023-04-01T13:27:18;22.00;46.70
33943;DHT22;66763;47.856;17.462;2023-04-01T13:29:56;22.10;46.70
33943;DHT22;66763;47.856;17.462;2023-04-01T13:32:36;22.10;46.80
33943;DHT22;66763;47.856;17.462;2023-04-01T13:42:47;22.20;46.60
33943;DHT22;66763;47.856;17.462;2023-04-01T13:45:15;22.20;46.60
33943;DHT22;66763;47.856;17.462;2023-04-01T13:50:53;22.30;46.50
33943;DHT22;66763;47.856;17.462;2023-04-01T13:55:34;22.30;46.50
33943;DHT22;66763;47.856;17.462;2023-04-01T14:11:17;22.10;44.30
33943;DHT22;66763;47.856;17.462;2023-04-01T14:22:03;21.90;44.10
33943;DHT22;66763;47.856;17.462;2023-04-01T14:40:28;21.70;44.20
33943;DHT22;66763;47.856;17.462;2023-04-01T14:45:40;21.70;44.40
33943;DHT22;66763;47.856;17.462;2023-04-01T14:48:17;21.70;44.50
33943;DHT22;66763;47.856;17.462;2023-04-01T14:50:47;21.60;44.30
33943;DHT22;66763;47.856;17.462;2023-04-01T14:55:52;21.60;43.30
33943;DHT22;66763;47.856;17.462;2023-04-01T14:58:18;21.50;42.30
33943;DHT22;66763;47.856;17.462;2023-04-01T15:03:24;21.40;42.40
33943;DHT22;66763;47.856;17.462;2023-04-01T15:19:05;20.70;40.70
33943;DHT22;66763;47.856;17.462;2023-04-01T15:21:50;20.80;41.10
33943;DHT22;66763;47.856;17.462;2023-04-01T15:24:20;21.00;41.40
33943;DHT22;66763;47.856;17.462;2023-04-01T15:27:07;21.20;41.90
33943;DHT22;66763;47.856;17.462;2023-04-01T15:37:54;21.80;42.80
33943;DHT22;66763;47.856;17.462;2023-04-01T15:42:31;21.90;43.10
33943;DHT22;66763;47.856;17.462;2023-04-01T15:56:11;22.40;43.40
33943;DHT22;66763;47.856;17.462;2023-04-01T16:01:24;22.60;43.60
33943;DHT22;66763;47.856;17.462;2023-04-01T16:03:59;22.60;43.40
33943;DHT22;66763;47.856;17.462;2023-04-01T16:09:10;22.70;43.40
33943;DHT22;66763;47.856;17.462;2023-04-01T16:21:48;22.90;43.80
33943;DHT22;66763;47.856;17.462;2023-04-01T16:27:02;22.90;44.00
33943;DHT22;66763;47.856;17.462;2023-04-01T16:29:32;22.90;44.10
33943;DHT22;66763;47.856;17.462;2023-04-01T16:32:07;22.90;44.00
33943;DHT22;66763;47.856;17.462;2023-04-01T16:34:36;22.80;44.00
33943;DHT22;66763;47.856;17.462;2023-04-01T16:37:17;22.90;44.20
33943;DHT22;66763;47.856;17.462;2023-04-01T16:39:59;22.80;44.10
33943;DHT22;66763;47.856;17.462;2023-04-01T16:47:34;22.80;44.90
33943;DHT22;66763;47.856;17.462;2023-04-01T16:50:15;22.80;44.30
33943;DHT22;66763;47.856;17.462;2023-04-01T16:55:34;22.70;44.40
33943;DHT22;66763;47.856;17.462;2023-04-01T16:58:00;22.60;44.10
33943;DHT22;66763;47.856;17.462;2023-04-01T17:03:08;22.50;44.20
33943;DHT22;66763;47.856;17.462;2023-04-01T17:05:55;22.60;44.50
33943;DHT22;66763;47.856;17.462;2023-04-01T17:08:30;22.50;44.40
33943;DHT22;66763;47.856;17.462;2023-04-01T17:13:52;22.40;44.80
33943;DHT22;66763;47.856;17.462;2023-04-01T17:24:09;22.40;45.20
33943;DHT22;66763;47.856;17.462;2023-04-01T17:26:46;22.40;45.50
33943;DHT22;66763;47.856;17.462;2023-04-01T17:29:28;22.30;45.50
33943;DHT22;66763;47.856;17.462;2023-04-01T17:32:07;22.40;45.70
33943;DHT22;66763;47.856;17.462;2023-04-01T17:37:26;22.60;45.70
33943;DHT22;66763;47.856;17.462;2023-04-01T17:40:00;22.70;45.50
33943;DHT22;66763;47.856;17.462;2023-04-01T17:50:42;23.00;45.20
33943;DHT22;66763;47.856;17.462;2023-04-01T17:58:20;23.20;45.00
33943;DHT22;66763;47.856;17.462;2023-04-01T18:00:50;23.20;44.90
33943;DHT22;66763;47.856;17.462;2023-04-01T18:16:11;23.30;44.80
33943;DHT22;66763;47.856;17.462;2023-04-01T18:23:45;23.40;44.90
33943;DHT22;66763;47.856;17.462;2023-04-01T18:26:20;23.40;44.70
33943;DHT22;66763;47.856;17.462;2023-04-01T18:28:54;23.30;43.90
33943;DHT22;66763;47.856;17.462;2023-04-01T18:31:23;23.30;43.60
33943;DHT22;66763;47.856;17.462;2023-04-01T18:39:06;23.20;43.40
33943;DHT22;66763;47.856;17.462;2023-04-01T18:41:36;23.00;44.10
33943;DHT22;66763;47.856;17.462;2023-04-01T18:47:05;23.00;44.10
33943;DHT22;66763;47.856;17.462;2023-04-01T18:49:46;23.00;44.30
33943;DHT22;66763;47.856;17.462;2023-04-01T18:57:15;23.00;44.20
33943;DHT22;66763;47.856;17.462;2023-04-01T18:59:42;23.00;44.30
33943;DHT22;66763;47.856;17.462;2023-04-01T19:09:45;23.00;44.50
33943;DHT22;66763;47.856;17.462;2023-04-01T19:17:27;23.00;44.70
33943;DHT22;66763;47.856;17.462;2023-04-01T19:22:36;22.80;44.60
33943;DHT22;66763;47.856;17.462;2023-04-01T19:30:42;22.60;44.70
33943;DHT22;66763;47.856;17.462;2023-04-01T19:33:20;22.60;44.90
33943;DHT22;66763;47.856;17.462;2023-04-01T19:36:31;22.50;44.80
33943;DHT22;66763;47.856;17.462;2023-04-01T19:38:38;22.40;44.80
33943;DHT22;66763;47.856;17.462;2023-04-01T19:43:54;22.40;44.90
33943;DHT22;66763;47.856;17.462;2023-04-01T19:51:57;22.40;45.10
33943;DHT22;66763;47.856;17.462;2023-04-01T19:54:26;22.30;45.10
33943;DHT22;66763;47.856;17.462;2023-04-01T19:57:06;22.30;45.10
33943;DHT22;66763;47.856;17.462;2023-04-01T19:59:43;22.30;45.10
33943;DHT22;66763;47.856;17.462;2023-04-01T20:04:42;22.20;45.20
33943;DHT22;66763;47.856;17.462;2023-04-01T20:15:36;22.20;45.40
33943;DHT22;66763;47.856;17.462;2023-04-01T20:18:05;22.20;45.30
33943;DHT22;66763;47.856;17.462;2023-04-01T20:20:37;22.20;45.40
33943;DHT22;66763;47.856;17.462;2023-04-01T20:23:05;22.20;45.50
33943;DHT22;66763;47.856;17.462;2023-04-01T20:28:01;22.20;45.40
33943;DHT22;66763;47.856;17.462;2023-04-01T20:38:51;22.10;45.30
33943;DHT22;66763;47.856;17.462;2023-04-01T20:46:37;22.00;45.50
33943;DHT22;66763;47.856;17.462;2023-04-01T20:51:31;22.00;45.40
33943;DHT22;66763;47.856;17.462;2023-04-01T20:58:58;22.00;45.50
33943;DHT22;66763;47.856;17.462;2023-04-01T21:01:41;22.00;45.50
33943;DHT22;66763;47.856;17.462;2023-04-01T21:04:15;21.90;45.40
33943;DHT22;66763;47.856;17.462;2023-04-01T21:11:53;21.80;45.40
33943;DHT22;66763;47.856;17.462;2023-04-01T21:16:55;21.80;45.60
33943;DHT22;66763;47.856;17.462;2023-04-01T21:26:53;21.70;45.70
33943;DHT22;66763;47.856;17.462;2023-04-01T21:49:48;21.40;45.70
33943;DHT22;66763;47.856;17.462;2023-04-01T22:00:19;21.40;45.80
33943;DHT22;66763;47.856;17.462;2023-04-01T22:03:11;21.40;45.90
33943;DHT22;66763;47.856;17.462;2023-04-01T22:05:41;21.40;45.80
33943;DHT22;66763;47.856;17.462;2023-04-01T22:10:48;21.50;45.70
33943;DHT22;66763;47.856;17.462;2023-04-01T22:13:16;21.50;45.60
33943;DHT22;66763;47.856;17.462;2023-04-01T22:18:21;21.50;45.50
33943;DHT22;66763;47.856;17.462;2023-04-01T22:25:42;21.40;45.70
33943;DHT22;66763;47.856;17.462;2023-04-01T22:28:12;21.30;45.60
33943;DHT22;66763;47.856;17.462;2023-04-01T22:30:47;21.30;45.70
33943;DHT22;66763;47.856;17.462;2023-04-01T22:33:16;21.20;45.80
33943;DHT22;66763;47.856;17.462;2023-04-01T22:35:54;21.20;45.90
33943;DHT22;66763;47.856;17.462;2023-04-01T22:43:42;21.10;46.10
33943;DHT22;66763;47.856;17.462;2023-04-01T22:48:39;21.10;46.00
33943;DHT22;66763;47.856;17.462;2023-04-01T22:51:20;21.10;46.00
33943;DHT22;66763;47.856;17.462;2023-04-01T22:56:22;21.10;46.00
33943;DHT22;66763;47.856;17.462;2023-04-01T22:58:51;21.00;46.10
33943;DHT22;66763;47.856;17.462;2023-04-01T23:01:22;21.00;46.10
33943;DHT22;66763;47.856;17.462;2023-04-01T23:03:49;21.00;46.10
33943;DHT22;66763;47.856;17.462;2023-04-01T23:06:17;21.00;46.10
33943;DHT22;66763;47.856;17.462;2023-04-01T23:11:20;20.90;46.30
33943;DHT22;66763;47.856;17.462;2023-04-01T23:13:49;20.90;46.30
33943;DHT22;66763;47.856;17.462;2023-04-01T23:16:20;20.80;46.20
33943;DHT22;66763;47.856;17.462;2023-04-01T23:18:57;20.80;46.30
33943;DHT22;66763;47.856;17.462;2023-04-01T23:21:35;20.80;46.30
33943;DHT22;66763;47.856;17.462;2023-04-01T23:29:23;20.70;46.40
33943;DHT22;66763;47.856;17.462;2023-04-01T23:31:56;20.80;46.50
33943;DHT22;66763;47.856;17.462;2023-04-01T23:34:23;20.70;46.40
33943;DHT22;66763;47.856;17.462;2023-04-01T23:36:50;20.80;46.40
33943;DHT22;66763;47.856;17.462;2023-04-01T23:39:26;20.70;46.40
33943;DHT22;66763;47.856;17.462;2023-04-01T23:41:55;20.70;46.40
33943;DHT22;66763;47.856;17.462;2023-04-01T23:44:22;20.70;46.40
33943;DHT22;66763;47.856;17.462;2023-04-01T23:46:49;20.70;46.40
33943;DHT22;66763;47.856;17.462;2023-04-01T23:49:21;20.70;46.40
33943;DHT22;66763;47.856;17.462;2023-04-01T23:51:55;20.70;46.30
33943;DHT22;66763;47.856;17.462;2023-04-01T23:54:25;20.70;46.30
33943;DHT22;66763;47.856;17.462;2023-04-01T23:56:54;20.70;46.30
33943;DHT22;66763;47.856;17.462;2023-04-01T23:59:24;20.70;46.30
